Time;durP1;ratioP1;P1;durP2;ratioP2;P2;SDS_P1;SDS_P2;PMS_P1;PMS_P2;Temp;Humidity;BMP_temperature;BMP_pressure;BME280_temperature;BME280_humidity;BME280_pressure;Samples;Min_cycle;Max_cycle;Signal;HPM_P1;HPM_P2
2022/09/04 00:02:25;;;;;;;2.20;1.70;;;;;;;16.21;nan;100457.22;5032645;28;20107;-68
2022/09/04 00:05:12;;;;;;;2.42;1.90;;;;;;;16.17;nan;100453.28;5052403;28;20044;-69
2022/09/04 00:07:42;;;;;;;2.70;2.15;;;;;;;16.16;nan;100461.44;5045329;28;20108;-68
2022/09/04 00:10:20;;;;;;;2.47;2.05;;;;;;;16.13;nan;100457.31;5051984;28;20036;-68
2022/09/04 00:12:54;;;;;;;2.30;1.80;;;;;;;16.12;nan;100461.03;5051892;28;20036;-69
2022/09/04 00:15:34;;;;;;;2.33;2.00;;;;;;;16.11;nan;100465.53;5052199;28;20063;-68
2022/09/04 00:18:33;;;;;;;2.63;2.03;;;;;;;16.10;nan;100463.06;5038851;28;20036;-68
2022/09/04 00:21:05;;;;;;;2.28;1.88;;;;;;;16.12;nan;100466.34;5048724;28;20392;-68
2022/09/04 00:23:53;;;;;;;2.03;1.65;;;;;;;16.09;nan;100467.56;5041964;28;20065;-68
2022/09/04 00:26:42;;;;;;;2.30;1.67;;;;;;;16.05;nan;100476.13;5038218;28;20570;-68
2022/09/04 00:29:35;;;;;;;2.35;1.75;;;;;;;16.03;nan;100476.31;5028707;28;20037;-68
2022/09/04 00:32:19;;;;;;;2.40;1.73;;;;;;;16.04;nan;100474.47;5031905;28;20510;-68
2022/09/04 00:35:12;;;;;;;2.10;1.63;;;;;;;16.02;nan;100482.66;5029455;28;20056;-68
2022/09/04 00:38:00;;;;;;;2.53;2.20;;;;;;;16.04;nan;100480.66;5030269;28;20037;-68
2022/09/04 00:40:28;;;;;;;2.38;1.88;;;;;;;16.05;nan;100476.13;5029289;28;20516;-68
2022/09/04 00:43:12;;;;;;;2.70;1.90;;;;;;;16.05;nan;100476.13;5030435;28;20050;-68
2022/09/04 00:46:03;;;;;;;2.60;2.00;;;;;;;16.03;nan;100478.97;5029121;28;20049;-68
2022/09/04 00:48:50;;;;;;;3.33;1.90;;;;;;;15.97;nan;100474.41;5021152;28;20041;-68
2022/09/04 00:51:42;;;;;;;2.45;2.00;;;;;;;15.89;nan;100478.00;5036825;28;20295;-68
2022/09/04 00:54:29;;;;;;;2.85;2.20;;;;;;;15.84;nan;100477.75;5029381;28;20151;-69
2022/09/04 00:57:12;;;;;;;3.10;2.10;;;;;;;15.77;nan;100478.69;5033309;28;20065;-68
2022/09/04 00:59:46;;;;;;;3.20;2.50;;;;;;;15.74;nan;100481.72;5035264;28;20037;-69
2022/09/04 01:02:31;;;;;;;2.60;2.10;;;;;;;15.70;nan;100486.59;5028322;28;20337;-68
2022/09/04 01:05:20;;;;;;;2.45;1.98;;;;;;;15.67;nan;100486.94;5029168;28;20026;-68
2022/09/04 01:07:58;;;;;;;3.33;2.40;;;;;;;15.61;nan;100501.84;5028926;28;20038;-68
2022/09/04 01:10:34;;;;;;;3.08;2.47;;;;;;;15.58;nan;100502.19;5032810;28;20064;-68
2022/09/04 01:13:19;;;;;;;3.22;2.25;;;;;;;15.53;nan;100504.59;5036656;28;20045;-68
2022/09/04 01:16:09;;;;;;;3.00;2.20;;;;;;;15.49;nan;100504.16;5039398;28;20075;-68
2022/09/04 01:18:58;;;;;;;2.53;2.08;;;;;;;15.47;nan;100514.16;5039476;28;20190;-68
2022/09/04 01:21:35;;;;;;;2.90;2.20;;;;;;;15.46;nan;100514.34;5032409;28;20038;-68
2022/09/04 01:24:12;;;;;;;2.63;2.00;;;;;;;15.46;nan;100512.50;5028507;28;20107;-68
2022/09/04 01:27:04;;;;;;;2.00;1.50;;;;;;;15.46;nan;100512.50;5036199;28;20553;-68
2022/09/04 01:30:09;;;;;;;2.88;1.90;;;;;;;15.48;nan;100517.66;5025554;28;20033;-68
2022/09/04 01:32:52;;;;;;;2.95;2.08;;;;;;;15.50;nan;100513.78;5044023;28;20468;-68
2022/09/04 01:35:38;;;;;;;2.40;1.92;;;;;;;15.50;nan;100516.44;5037665;28;20037;-68
2022/09/04 01:38:24;;;;;;;3.78;2.40;;;;;;;15.50;nan;100513.78;5041382;28;20076;-69
2022/09/04 01:41:10;;;;;;;2.53;1.95;;;;;;;15.52;nan;100521.59;5042744;28;20040;-68
2022/09/04 01:43:35;;;;;;;2.67;2.03;;;;;;;15.50;nan;100521.78;5029686;28;20038;-68
2022/09/04 01:46:16;;;;;;;2.97;2.33;;;;;;;15.51;nan;100528.75;5035056;28;20502;-68
2022/09/04 01:49:07;;;;;;;2.73;1.93;;;;;;;15.48;nan;100522.97;5030147;28;20037;-68
2022/09/04 01:51:51;;;;;;;2.47;1.70;;;;;;;15.44;nan;100522.50;5038058;28;20283;-68
2022/09/04 01:54:41;;;;;;;2.63;1.80;;;;;;;15.49;nan;100522.81;5032559;28;20040;-69
2022/09/04 01:57:25;;;;;;;3.20;2.13;;;;;;;15.53;nan;100525.91;5028864;28;20042;-68
2022/09/04 02:00:08;;;;;;;2.95;1.98;;;;;;;15.52;nan;100521.59;5029189;28;20037;-68
2022/09/04 02:02:59;;;;;;;2.15;1.83;;;;;;;15.51;nan;100528.75;5029090;28;20045;-68
2022/09/04 02:05:36;;;;;;;2.47;2.05;;;;;;;15.49;nan;100525.47;5032084;28;20036;-68
2022/09/04 02:08:23;;;;;;;2.92;2.05;;;;;;;15.50;nan;100528.97;5035687;28;20200;-68
2022/09/04 02:11:25;;;;;;;2.00;1.60;;;;;;;15.48;nan;100526.47;5030746;28;20037;-68
2022/09/04 02:14:07;;;;;;;2.08;1.73;;;;;;;15.44;nan;100530.50;5029063;28;20052;-68
2022/09/04 02:16:44;;;;;;;2.25;1.80;;;;;;;15.39;nan;100524.06;5025836;28;20057;-68
2022/09/04 02:19:40;;;;;;;2.40;1.80;;;;;;;15.37;nan;100531.41;5030301;28;20045;-68
2022/09/04 02:22:23;;;;;;;2.17;1.77;;;;;;;15.33;nan;100525.66;5028480;28;20060;-68
2022/09/04 02:25:01;;;;;;;3.05;2.00;;;;;;;15.32;nan;100531.16;5030364;28;20037;-68
2022/09/04 02:27:38;;;;;;;2.80;1.85;;;;;;;15.29;nan;100530.50;5037123;28;20489;-68
2022/09/04 02:30:09;;;;;;;2.72;1.60;;;;;;;15.28;nan;100530.69;5029480;28;20049;-69
2022/09/04 02:32:52;;;;;;;2.70;2.00;;;;;;;15.25;nan;100525.72;5029740;28;20424;-69
2022/09/04 02:35:27;;;;;;;2.50;2.30;;;;;;;15.27;nan;100526.38;5029618;28;20121;-68
2022/09/04 02:38:13;;;;;;;3.30;2.90;;;;;;;15.32;nan;100518.66;5027837;28;20069;-68
2022/09/04 02:40:52;;;;;;;3.25;2.55;;;;;;;15.39;nan;100524.06;5026467;28;20457;-68
2022/09/04 02:43:34;;;;;;;3.05;2.60;;;;;;;15.45;nan;100526.03;5029901;28;20052;-68
2022/09/04 02:46:14;;;;;;;3.30;2.50;;;;;;;15.47;nan;100519.50;5042357;28;20100;-68
2022/09/04 02:48:56;;;;;;;3.57;2.87;;;;;;;15.50;nan;100520.97;5045647;28;20104;-68
2022/09/04 02:51:37;;;;;;;5.50;3.25;;;;;;;15.54;nan;100532.06;5036586;28;20045;-68
2022/09/04 02:54:32;;;;;;;3.50;3.10;;;;;;;15.61;nan;100530.31;5033208;28;20029;-68
2022/09/04 02:57:26;;;;;;;3.90;2.80;;;;;;;15.61;nan;100525.84;5033316;28;20067;-68
2022/09/04 03:00:15;;;;;;;3.80;2.70;;;;;;;15.60;nan;100534.81;5032372;28;20113;-68
2022/09/04 03:02:50;;;;;;;3.50;2.90;;;;;;;15.63;nan;100534.44;5031789;28;20095;-68
2022/09/04 03:05:23;;;;;;;4.00;3.50;;;;;;;15.66;nan;100541.25;5032578;28;20029;-68
2022/09/04 03:08:02;;;;;;;5.05;3.80;;;;;;;15.72;nan;100543.22;5034692;28;20049;-68
2022/09/04 03:10:42;;;;;;;4.43;3.22;;;;;;;15.71;nan;100539.72;5035586;28;20117;-68
2022/09/04 03:13:29;;;;;;;4.00;3.28;;;;;;;15.70;nan;100551.38;5031482;28;20045;-68
2022/09/04 03:16:03;;;;;;;3.08;2.55;;;;;;;15.69;nan;100548.91;5033149;28;20042;-68
2022/09/04 03:18:46;;;;;;;3.65;3.08;;;;;;;15.68;nan;100549.88;5038778;28;20033;-68
2022/09/04 03:21:19;;;;;;;3.35;2.58;;;;;;;15.68;nan;100563.22;5033790;28;20331;-68
2022/09/04 03:23:50;;;;;;;2.85;2.30;;;;;;;15.67;nan;100558.91;5034780;28;20037;-68
2022/09/04 03:26:23;;;;;;;3.38;2.42;;;;;;;15.69;nan;100557.72;5032965;28;20037;-68
2022/09/04 03:29:05;;;;;;;2.45;2.00;;;;;;;15.73;nan;100562.69;5032056;28;20052;-68
2022/09/04 03:31:49;;;;;;;;;;;;;;;15.76;nan;100565.03;5031928;28;20206;-69
2022/09/04 03:34:41;;;;;;;3.22;2.58;;;;;;;15.79;nan;100568.13;5030472;28;19935;-68
2022/09/04 03:37:40;;;;;;;2.53;2.15;;;;;;;15.85;nan;100574.56;5030568;28;20040;-68
2022/09/04 03:40:16;;;;;;;2.45;1.98;;;;;;;15.88;nan;100566.19;5032466;28;20545;-70
2022/09/04 03:43:02;;;;;;;2.65;2.20;;;;;;;15.86;nan;100560.22;5027982;28;20567;-69
2022/09/04 03:45:33;;;;;;;2.78;1.60;;;;;;;15.82;nan;100566.94;5042113;28;20449;-69
2022/09/04 03:48:26;;;;;;;2.50;2.00;;;;;;;15.79;nan;100567.31;5031604;28;20033;-68
2022/09/04 03:51:16;;;;;;;2.58;2.13;;;;;;;15.75;nan;100576.69;5033611;28;20060;-68
2022/09/04 03:54:08;;;;;;;3.85;2.38;;;;;;;15.72;nan;100577.88;5036292;28;20113;-68
2022/09/04 03:57:13;;;;;;;2.70;2.17;;;;;;;15.69;nan;100584.38;5030638;28;20060;-68
2022/09/04 03:59:50;;;;;;;2.50;2.25;;;;;;;15.64;nan;100583.28;5026283;28;20040;-68
2022/09/04 04:02:25;;;;;;;3.17;2.05;;;;;;;15.61;nan;100581.81;5033581;28;20033;-69
2022/09/04 04:05:02;;;;;;;3.17;2.40;;;;;;;15.60;nan;100582.81;5031728;28;20867;-69
2022/09/04 04:07:46;;;;;;;4.05;2.67;;;;;;;15.59;nan;100588.31;5032591;28;20039;-68
2022/09/04 04:10:49;;;;;;;2.75;2.28;;;;;;;15.57;nan;100590.34;5027966;28;20046;-68
2022/09/04 04:13:14;;;;;;;2.80;2.00;;;;;;;15.55;nan;100587.88;5039579;28;20096;-68
2022/09/04 04:16:11;;;;;;;2.30;1.80;;;;;;;15.53;nan;100581.06;5035374;28;20049;-69
2022/09/04 04:18:54;;;;;;;2.25;1.88;;;;;;;15.50;nan;100590.25;5030353;28;20465;-68
2022/09/04 04:21:56;;;;;;;2.55;2.03;;;;;;;15.49;nan;100588.56;5046806;28;20516;-68
2022/09/04 04:24:40;;;;;;;2.40;1.90;;;;;;;15.48;nan;100592.25;5032580;28;20048;-69
2022/09/04 04:27:24;;;;;;;2.90;2.00;;;;;;;15.46;nan;100600.44;5032048;28;20423;-68
2022/09/04 04:29:52;;;;;;;2.63;1.95;;;;;;;15.43;nan;100595.47;5029661;28;20064;-68
2022/09/04 04:32:26;;;;;;;2.97;1.92;;;;;;;15.41;nan;100602.81;5029277;28;20033;-69
2022/09/04 04:35:27;;;;;;;2.17;1.73;;;;;;;15.39;nan;100610.16;5031352;28;20033;-68
2022/09/04 04:38:16;;;;;;;2.50;1.90;;;;;;;15.36;nan;100605.19;5033041;28;20517;-68
2022/09/04 04:40:51;;;;;;;2.53;1.83;;;;;;;15.32;nan;100608.41;5039318;28;20037;-68
2022/09/04 04:43:40;;;;;;;2.20;1.80;;;;;;;15.27;nan;100611.63;5029716;28;20109;-68
2022/09/04 04:46:08;;;;;;;2.10;1.67;;;;;;;15.25;nan;100617.13;5028236;28;20426;-69
2022/09/04 04:49:03;;;;;;;2.05;1.58;;;;;;;15.24;nan;100620.78;5036479;28;20073;-68
2022/09/04 04:51:41;;;;;;;2.17;1.60;;;;;;;15.22;nan;100620.16;5035480;28;20034;-68
2022/09/04 04:54:25;;;;;;;1.75;1.40;;;;;;;15.17;nan;100622.53;5032643;28;20061;-68
2022/09/04 04:57:07;;;;;;;1.80;1.45;;;;;;;15.15;nan;100618.38;5030313;28;20057;-69
2022/09/04 04:59:57;;;;;;;1.95;1.45;;;;;;;15.11;nan;100631.25;5037579;28;20033;-68
2022/09/04 05:02:33;;;;;;;2.50;2.17;;;;;;;15.08;nan;100634.25;5029115;28;20045;-68
2022/09/04 05:05:12;;;;;;;2.85;2.20;;;;;;;15.05;nan;100643.41;5025593;28;20133;-68
2022/09/04 05:08:02;;;;;;;3.20;2.20;;;;;;;15.05;nan;100642.59;5033313;28;20048;-68
2022/09/04 05:10:35;;;;;;;2.70;2.15;;;;;;;15.04;nan;100646.25;5031069;28;20069;-68
2022/09/04 05:13:22;;;;;;;2.45;2.08;;;;;;;15.05;nan;100650.59;5032239;28;20171;-68
2022/09/04 05:16:00;;;;;;;2.33;1.80;;;;;;;15.07;nan;100657.38;5029269;28;20048;-68
2022/09/04 05:18:55;;;;;;;2.40;1.98;;;;;;;15.10;nan;100658.88;5032796;28;20125;-68
2022/09/04 05:21:38;;;;;;;2.00;1.60;;;;;;;15.13;nan;100658.50;5028849;28;20425;-68
2022/09/04 05:24:28;;;;;;;2.83;2.00;;;;;;;15.17;nan;100666.97;5027150;28;20112;-68
2022/09/04 05:27:08;;;;;;;2.03;1.58;;;;;;;15.24;nan;100668.75;5031466;28;20124;-68
2022/09/04 05:29:55;;;;;;;2.53;1.60;;;;;;;15.39;nan;100673.28;5027434;28;20033;-68
2022/09/04 05:32:42;;;;;;;2.33;1.55;;;;;;;15.57;nan;100672.97;5033800;28;20038;-69
2022/09/04 05:35:24;;;;;;;2.85;1.50;;;;;;;15.79;nan;100685.44;5030719;28;20141;-69
2022/09/04 05:38:00;;;;;;;3.15;1.88;;;;;;;16.05;nan;100682.34;5034895;28;20029;-69
2022/09/04 05:40:50;;;;;;;2.22;1.70;;;;;;;16.30;nan;100698.91;5033827;28;20091;-69
2022/09/04 05:43:53;;;;;;;2.50;1.83;;;;;;;16.63;nan;100695.81;5031735;28;20037;-68
2022/09/04 05:46:32;;;;;;;2.13;1.75;;;;;;;16.95;nan;100699.09;5031105;28;20337;-69
2022/09/04 05:49:13;;;;;;;3.10;1.35;;;;;;;17.26;nan;100706.78;5034759;28;20048;-69
2022/09/04 05:52:05;;;;;;;1.97;1.40;;;;;;;17.57;nan;100709.13;5030255;28;20155;-69
2022/09/04 05:54:49;;;;;;;1.73;1.30;;;;;;;17.92;nan;100725.25;5030863;28;20506;-69
2022/09/04 05:57:27;;;;;;;1.83;1.10;;;;;;;18.20;nan;100722.53;5026707;28;20051;-69
2022/09/04 06:00:10;;;;;;;1.40;1.05;;;;;;;18.30;nan;100719.50;5029252;28;20087;-69
2022/09/04 06:02:48;;;;;;;1.33;1.17;;;;;;;18.32;nan;100724.69;5029884;28;20405;-69
2022/09/04 06:05:44;;;;;;;1.40;1.10;;;;;;;18.50;nan;100716.13;5029448;28;20337;-69
2022/09/04 06:08:37;;;;;;;2.55;1.70;;;;;;;18.89;nan;100727.00;5027285;28;20063;-69
2022/09/04 06:11:27;;;;;;;1.73;1.40;;;;;;;19.06;nan;100729.31;5030002;28;20037;-69
2022/09/04 06:14:24;;;;;;;2.17;1.60;;;;;;;19.17;nan;100731.41;5032991;28;20093;-69
2022/09/04 06:17:10;;;;;;;1.88;1.42;;;;;;;19.10;nan;100730.56;5011366;28;20227;-69
2022/09/04 06:19:52;;;;;;;2.00;1.60;;;;;;;19.01;nan;100737.16;5023547;28;20091;-69
2022/09/04 06:22:30;;;;;;;2.17;1.60;;;;;;;18.86;nan;100732.78;5030393;28;20072;-69
2022/09/04 06:25:37;;;;;;;2.47;1.90;;;;;;;18.78;nan;100735.66;5033601;28;20048;-69
2022/09/04 06:28:16;;;;;;;1.60;1.23;;;;;;;18.84;nan;100740.19;5030924;28;20498;-69
2022/09/04 06:30:55;;;;;;;2.70;1.60;;;;;;;18.87;nan;100745.13;5028031;28;20038;-68
2022/09/04 06:33:38;;;;;;;2.20;1.35;;;;;;;19.07;nan;100755.94;5031696;28;20758;-68
2022/09/04 06:36:28;;;;;;;1.90;1.40;;;;;;;19.33;nan;100753.50;5032641;28;20524;-69
2022/09/04 06:39:15;;;;;;;2.75;1.50;;;;;;;19.59;nan;100753.50;5031843;28;20037;-69
2022/09/04 06:41:55;;;;;;;1.88;1.45;;;;;;;19.71;nan;100748.41;5034875;28;20033;-69
2022/09/04 06:44:46;;;;;;;2.65;1.60;;;;;;;19.82;nan;100746.97;5030442;28;20493;-69
2022/09/04 06:47:41;;;;;;;2.05;1.60;;;;;;;19.89;nan;100753.16;5036663;28;20482;-69
2022/09/04 06:50:25;;;;;;;2.97;1.75;;;;;;;20.45;nan;100757.16;5024861;28;20421;-70
2022/09/04 06:53:05;;;;;;;2.33;1.75;;;;;;;21.16;nan;100756.28;5031531;28;20132;-69
2022/09/04 06:55:59;;;;;;;2.90;1.90;;;;;;;21.93;nan;100756.97;5032466;28;20041;-69
2022/09/04 06:58:49;;;;;;;3.20;2.40;;;;;;;22.61;nan;100758.75;5029570;28;20041;-70
2022/09/04 07:01:22;;;;;;;2.35;1.90;;;;;;;23.15;nan;100764.34;5028450;28;20037;-70
2022/09/04 07:04:01;;;;;;;3.10;2.13;;;;;;;23.51;nan;100763.38;5030070;28;20049;-70
2022/09/04 07:06:48;;;;;;;3.17;2.60;;;;;;;23.74;nan;100762.63;5010140;28;20071;-70
2022/09/04 07:09:34;;;;;;;3.75;2.15;;;;;;;24.14;nan;100764.59;5024572;28;20050;-70
2022/09/04 07:12:08;;;;;;;2.90;2.00;;;;;;;24.48;nan;100770.25;5032156;28;20485;-70
2022/09/04 07:14:55;;;;;;;2.50;2.08;;;;;;;24.74;nan;100773.47;5028380;28;20495;-70
2022/09/04 07:17:32;;;;;;;3.75;2.30;;;;;;;25.00;nan;100778.34;5028320;28;20416;-70
2022/09/04 07:20:24;;;;;;;2.78;2.20;;;;;;;25.09;nan;100781.47;5032207;28;20033;-70
2022/09/04 07:23:11;;;;;;;2.70;1.90;;;;;;;25.40;nan;100782.06;5027802;28;20025;-70
2022/09/04 07:26:16;;;;;;;4.45;2.55;;;;;;;25.71;nan;100787.97;5029890;28;20163;-70
2022/09/04 07:29:28;;;;;;;2.85;2.30;;;;;;;25.91;nan;100779.38;5016329;28;20041;-70
2022/09/04 07:31:59;;;;;;;2.63;1.85;;;;;;;26.14;nan;100787.31;5029115;28;20026;-70
2022/09/04 07:34:30;;;;;;;3.53;2.50;;;;;;;26.39;nan;100786.88;5028803;28;20498;-70
2022/09/04 07:37:00;;;;;;;;;;;;;;;26.64;nan;100793.72;5033616;28;20127;-70
2022/09/04 07:39:47;;;;;;;2.60;1.98;;;;;;;26.75;nan;100794.69;5035809;28;20341;-70
2022/09/04 07:42:26;;;;;;;4.18;3.00;;;;;;;26.77;nan;100800.66;5034883;28;20628;-70
2022/09/04 07:45:07;;;;;;;5.45;3.13;;;;;;;26.78;nan;100805.84;5038368;28;20037;-70
2022/09/04 07:47:41;;;;;;;4.38;3.55;;;;;;;26.72;nan;100809.56;5034617;28;20033;-70
2022/09/04 07:50:15;;;;;;;4.80;2.92;;;;;;;26.76;nan;100807.97;5026786;28;20038;-70
2022/09/04 07:53:13;;;;;;;4.15;2.90;;;;;;;27.02;nan;100811.00;5031398;28;20033;-70
2022/09/04 07:55:56;;;;;;;3.47;2.50;;;;;;;27.29;nan;100816.47;5032321;28;20192;-70
2022/09/04 07:58:57;;;;;;;7.68;3.72;;;;;;;27.42;nan;100812.53;5034803;28;20470;-70
2022/09/04 08:01:44;;;;;;;5.35;3.97;;;;;;;27.74;nan;100809.81;5035783;28;20044;-70
2022/09/04 08:04:27;;;;;;;5.03;3.53;;;;;;;28.14;nan;100812.03;5033105;28;20045;-70
2022/09/04 08:07:37;;;;;;;4.45;3.22;;;;;;;28.26;nan;100811.03;5036981;28;20128;-70
2022/09/04 08:10:30;;;;;;;4.10;2.78;;;;;;;28.41;nan;100818.44;5003920;28;20033;-70
2022/09/04 08:13:12;;;;;;;3.60;2.90;;;;;;;28.82;nan;100830.38;5030229;28;20034;-70
2022/09/04 08:16:16;;;;;;;4.88;3.63;;;;;;;28.82;nan;100821.38;5034903;28;20044;-70
2022/09/04 08:19:00;;;;;;;4.40;2.80;;;;;;;28.93;nan;100834.78;5035821;28;20592;-70
2022/09/04 08:21:30;;;;;;;3.40;2.50;;;;;;;29.11;nan;100836.22;5033955;28;20029;-70
2022/09/04 08:24:33;;;;;;;3.90;2.78;;;;;;;29.42;nan;100839.03;5035238;28;20404;-70
2022/09/04 08:27:34;;;;;;;4.70;3.15;;;;;;;29.59;nan;100841.50;5038046;28;20037;-70
2022/09/04 08:30:06;;;;;;;4.18;3.30;;;;;;;29.55;nan;100837.66;5040127;28;20116;-70
2022/09/04 08:32:35;;;;;;;4.75;2.58;;;;;;;29.70;nan;100845.91;5027410;28;20041;-70
2022/09/04 08:35:18;;;;;;;3.17;2.10;;;;;;;30.11;nan;100845.06;5040949;28;20033;-70
2022/09/04 08:38:22;;;;;;;4.00;3.17;;;;;;;30.41;nan;100841.47;5053039;28;20041;-70
2022/09/04 08:41:09;;;;;;;3.85;2.72;;;;;;;30.50;nan;100841.72;5043564;28;20057;-70
2022/09/04 08:44:02;;;;;;;5.45;3.03;;;;;;;30.56;nan;100840.59;5052417;28;20587;-70
2022/09/04 08:46:55;;;;;;;3.55;2.17;;;;;;;31.03;nan;100851.09;5045906;28;20036;-70
2022/09/04 08:49:38;;;;;;;2.95;2.00;;;;;;;31.28;nan;100852.88;5046559;28;20040;-70
2022/09/04 08:52:29;;;;;;;2.85;1.90;;;;;;;31.57;nan;100857.63;5027410;28;20081;-70
2022/09/04 08:54:56;;;;;;;2.88;2.17;;;;;;;31.88;nan;100854.66;5042280;28;20087;-70
2022/09/04 08:57:43;;;;;;;3.80;2.70;;;;;;;32.06;nan;100861.34;5040690;28;20040;-70
2022/09/04 09:00:15;;;;;;;4.03;2.40;;;;;;;32.23;nan;100864.50;5030464;28;20037;-71
2022/09/04 09:03:18;;;;;;;3.92;2.30;;;;;;;32.32;nan;100857.28;5036282;28;20029;-70
2022/09/04 09:06:05;;;;;;;3.22;2.30;;;;;;;32.54;nan;100866.94;5039723;28;20037;-70
2022/09/04 09:08:48;;;;;;;3.88;2.80;;;;;;;32.92;nan;100861.56;5043528;28;20096;-71
2022/09/04 09:11:19;;;;;;;4.00;2.50;;;;;;;33.31;nan;100861.28;5032345;28;20050;-70
2022/09/04 09:14:00;;;;;;;3.05;2.22;;;;;;;33.28;nan;100852.88;5037695;28;20085;-70
2022/09/04 09:16:58;;;;;;;2.92;1.80;;;;;;;33.76;nan;100858.97;5032693;28;20038;-70
2022/09/04 09:19:44;;;;;;;3.30;2.15;;;;;;;34.23;nan;100862.59;5035035;28;20120;-70
2022/09/04 09:22:28;;;;;;;3.25;2.22;;;;;;;34.82;nan;100860.06;5028919;28;20044;-71
2022/09/04 09:25:11;;;;;;;3.03;2.00;;;;;;;35.33;nan;100858.16;5030809;28;20029;-70
2022/09/04 09:27:58;;;;;;;3.30;2.17;;;;;;;35.91;nan;100860.06;5030023;28;20105;-69
2022/09/04 09:30:24;;;;;;;3.15;2.30;;;;;;;36.13;nan;100863.94;5032467;28;20044;-70
2022/09/04 09:33:17;;;;;;;2.30;1.92;;;;;;;36.20;nan;100867.03;5034049;28;20061;-69
2022/09/04 09:36:11;;;;;;;2.90;2.28;;;;;;;35.95;nan;100863.00;5035705;28;20275;-70
2022/09/04 09:39:03;;;;;;;4.45;2.05;;;;;;;35.96;nan;100864.63;5027448;28;20053;-70
2022/09/04 09:56:07;;;;;;;1.80;1.08;;;;;;;37.54;29.87;100848.25;5105597;28;20035;-85
2022/09/04 09:58:51;;;;;;;2.25;1.10;;;;;;;38.35;29.33;100849.31;5087407;28;20040;-84
2022/09/04 10:01:24;;;;;;;1.92;1.20;;;;;;;39.14;28.35;100851.66;5069149;28;20556;-85
2022/09/04 10:04:14;;;;;;;2.10;1.30;;;;;;;38.89;27.38;100848.72;5070261;28;20579;-86
2022/09/04 10:07:18;;;;;;;3.38;1.60;;;;;;;37.41;29.20;100838.16;5073159;28;20040;-85
2022/09/04 10:09:46;;;;;;;;;;;;;;;36.99;30.37;100844.16;5090116;28;20046;-86
2022/09/04 10:12:38;;;;;;;;;;;;;;;38.35;28.79;100843.81;5089163;28;19925;-86
2022/09/04 10:15:34;;;;;;;2.90;1.80;;;;;;;39.22;26.30;100839.72;5089600;28;20162;-85
2022/09/04 10:18:37;;;;;;;2.85;1.73;;;;;;;36.99;29.15;100838.63;5096602;28;20036;-85
2022/09/04 10:21:21;;;;;;;3.38;1.60;;;;;;;37.47;28.34;100831.34;5102142;28;20082;-84
2022/09/04 10:24:05;;;;;;;;;;;;;;;38.42;27.92;100846.06;5091126;28;20091;-85
2022/09/04 10:27:33;;;;;;;2.92;1.65;;;;;;;39.65;25.82;100838.53;5080928;28;19942;-85
2022/09/04 10:30:17;;;;;;;2.08;1.30;;;;;;;40.75;24.53;100840.66;5036774;28;20540;-86
2022/09/04 10:33:03;;;;;;;;;;;;;;;41.31;24.34;100835.22;5033070;28;20071;-85
2022/09/04 10:35:42;;;;;;;2.50;1.60;;;;;;;42.03;23.58;100841.91;5073438;28;19916;-83
2022/09/04 10:38:20;;;;;;;2.95;1.40;;;;;;;42.30;23.04;100842.97;5080330;28;20115;-86
2022/09/04 10:40:57;;;;;;;2.35;1.80;;;;;;;42.18;22.94;100838.31;5074997;28;20040;-85
2022/09/04 10:43:57;;;;;;;3.05;1.58;;;;;;;41.87;22.36;100830.75;5079513;28;20090;-85
2022/09/04 10:47:01;;;;;;;1.67;1.13;;;;;;;40.46;23.73;100836.16;5080557;28;20037;-85
2022/09/04 10:49:45;;;;;;;2.28;1.50;;;;;;;37.47;26.69;100825.84;5088314;28;20060;-84
2022/09/04 10:52:52;;;;;;;2.42;1.50;;;;;;;36.57;28.29;100826.38;5082992;28;20101;-84
2022/09/04 10:55:29;;;;;;;2.13;1.42;;;;;;;38.37;26.43;100829.66;4998397;28;20042;-84
2022/09/04 10:58:38;;;;;;;2.75;1.52;;;;;;;39.74;24.66;100821.81;5013090;28;20157;-85
2022/09/04 11:01:28;;;;;;;2.58;1.83;;;;;;;40.72;24.15;100824.72;5031756;28;20065;-85
2022/09/04 11:04:12;;;;;;;2.10;1.40;;;;;;;41.74;23.17;100821.69;5060917;28;20499;-86
2022/09/04 11:07:08;;;;;;;2.10;1.30;;;;;;;41.61;22.47;100822.94;5058555;28;20040;-86
2022/09/04 11:09:34;;;;;;;2.08;1.40;;;;;;;39.04;24.75;100814.97;5064062;28;20036;-86
2022/09/04 11:12:06;;;;;;;2.00;1.40;;;;;;;39.27;24.13;100814.63;5059661;28;20505;-85
2022/09/04 11:14:53;;;;;;;2.92;1.65;;;;;;;40.65;23.48;100827.25;5073824;28;20062;-85
2022/09/04 11:17:29;;;;;;;1.65;1.05;;;;;;;42.18;22.04;100822.44;5066307;28;20120;-86
2022/09/04 11:20:08;;;;;;;3.00;1.30;;;;;;;42.17;20.55;100825.59;5064281;28;20029;-85
2022/09/04 11:22:55;;;;;;;2.28;1.00;;;;;;;40.71;21.32;100820.31;5061612;28;20551;-87
2022/09/04 11:25:53;;;;;;;1.77;1.10;;;;;;;40.02;22.92;100808.16;5083595;28;20041;-85
2022/09/04 11:28:39;;;;;;;1.83;1.23;;;;;;;41.29;21.50;100814.53;5083731;28;20134;-86
2022/09/04 11:31:32;;;;;;;1.85;1.08;;;;;;;38.52;24.18;100814.50;5077040;28;20048;-85
2022/09/04 11:34:19;;;;;;;1.83;1.20;;;;;;;36.08;26.36;100818.03;5083106;28;20518;-85
2022/09/04 11:37:22;;;;;;;1.20;0.90;;;;;;;35.81;28.18;100816.28;5063437;28;20033;-85
2022/09/04 11:39:54;;;;;;;2.08;1.17;;;;;;;36.89;26.75;100814.13;5069220;28;20037;-84
2022/09/04 11:42:26;;;;;;;1.83;1.30;;;;;;;38.48;25.35;100811.59;5071047;28;20112;-86
2022/09/04 11:45:20;;;;;;;1.75;1.10;;;;;;;39.88;22.99;100811.25;5080869;28;20037;-87
2022/09/04 11:48:03;;;;;;;1.13;0.80;;;;;;;41.28;22.07;100810.13;5088282;28;20036;-84
2022/09/04 11:50:34;;;;;;;1.30;0.80;;;;;;;42.14;21.23;100813.19;5062095;28;20040;-84
2022/09/04 11:53:16;;;;;;;1.65;1.00;;;;;;;42.14;21.26;100807.66;5074298;28;20582;-84
2022/09/04 11:56:02;;;;;;;2.47;0.90;;;;;;;41.38;21.95;100813.19;5083567;28;20025;-84
2022/09/04 11:58:49;;;;;;;1.67;0.90;;;;;;;40.69;22.95;100811.53;5080244;28;20105;-84
2022/09/04 12:01:37;;;;;;;2.28;1.00;;;;;;;39.57;23.07;100804.28;5071563;28;20063;-85
2022/09/04 12:04:31;;;;;;;1.45;1.00;;;;;;;37.63;25.36;100806.84;5081074;28;20151;-84
2022/09/04 12:07:07;;;;;;;2.53;1.80;;;;;;;36.87;26.29;100810.88;5080375;28;20058;-85
2022/09/04 12:09:57;;;;;;;1.98;1.10;;;;;;;36.37;26.45;100800.19;5069783;28;20039;-84
2022/09/04 12:12:56;;;;;;;1.70;0.98;;;;;;;35.90;27.52;100803.41;5074047;28;20040;-86
2022/09/04 12:15:33;;;;;;;1.27;0.80;;;;;;;35.30;28.10;100804.63;5085845;28;20040;-84
2022/09/04 12:18:20;;;;;;;2.42;1.10;;;;;;;34.68;28.84;100801.56;5060834;28;20462;-85
2022/09/04 12:21:21;;;;;;;2.08;1.40;;;;;;;34.14;29.59;100804.03;5080857;28;20525;-86
2022/09/04 12:24:02;;;;;;;;;;;;;;;33.59;29.57;100801.94;5078641;28;20081;-84
2022/09/04 12:26:48;;;;;;;2.45;1.60;;;;;;;33.47;29.58;100795.28;5074483;28;19925;-84
2022/09/04 12:29:24;;;;;;;2.08;1.35;;;;;;;33.31;30.34;100805.66;5078452;28;20114;-86
2022/09/04 12:32:03;;;;;;;2.53;1.80;;;;;;;33.24;30.24;100797.00;5078462;28;20415;-84
2022/09/04 12:34:40;;;;;;;2.28;1.48;;;;;;;33.17;29.74;100792.72;5069633;28;20390;-84
2022/09/04 12:37:49;;;;;;;1.77;1.30;;;;;;;32.67;29.78;100792.28;5069425;28;20032;-85
2022/09/04 12:40:31;;;;;;;2.28;1.30;;;;;;;32.68;30.04;100791.19;5046518;28;20033;-85
2022/09/04 12:43:19;;;;;;;2.28;1.23;;;;;;;32.81;30.08;100797.84;5061170;28;20044;-85
2022/09/04 12:46:13;;;;;;;1.98;1.30;;;;;;;32.62;31.09;100805.22;5069433;28;20036;-85
2022/09/04 12:49:05;;;;;;;2.28;1.45;;;;;;;32.41;30.81;100802.69;5081159;28;22229;-84
2022/09/04 12:52:16;;;;;;;2.47;1.10;;;;;;;31.94;31.50;100796.91;5079199;28;20046;-86
2022/09/04 12:54:52;;;;;;;1.95;1.45;;;;;;;31.33;32.59;100809.13;5078115;28;20040;-84
2022/09/04 12:57:45;;;;;;;4.13;1.90;;;;;;;31.02;31.56;100794.84;5078583;28;20450;-82
2022/09/04 13:00:16;;;;;;;1.63;1.20;;;;;;;30.53;33.01;100800.22;5067031;28;20037;-82
2022/09/04 13:03:09;;;;;;;3.42;1.83;;;;;;;30.60;33.83;100804.28;5070197;28;20032;-83
2022/09/04 13:05:50;;;;;;;1.90;1.48;;;;;;;30.22;32.71;100803.88;5070007;28;20281;-83
2022/09/04 13:08:21;;;;;;;2.13;1.40;;;;;;;29.98;33.48;100800.88;5070090;28;20180;-84
2022/09/04 13:10:47;;;;;;;2.22;1.40;;;;;;;29.90;33.52;100800.63;5067584;28;20043;-83
2022/09/04 13:13:21;;;;;;;2.47;1.40;;;;;;;29.71;33.58;100803.09;5063236;28;20048;-83
2022/09/04 13:15:52;;;;;;;2.08;1.20;;;;;;;29.41;35.25;100800.06;5062463;28;20494;-82
2022/09/04 13:18:43;;;;;;;1.92;1.35;;;;;;;29.34;34.42;100804.97;5059670;28;20153;-82